sensor_id;sensor_type;location;lat;lon;timestamp;P1;durP1;ratioP1;P2;durP2;ratioP2
12218;SDS011;6172;42.646;23.344;2023-05-10T00:01:00;0.00;;;0.00;;
12218;SDS011;6172;42.646;23.344;2023-05-10T00:03:27;0.00;;;0.00;;
12218;SDS011;6172;42.646;23.344;2023-05-10T00:05:54;0.00;;;0.00;;
12218;SDS011;6172;42.646;23.344;2023-05-10T00:08:21;0.00;;;0.00;;
12218;SDS011;6172;42.646;23.344;2023-05-10T00:10:48;0.00;;;0.00;;
12218;SDS011;6172;42.646;23.344;2023-05-10T00:13:16;0.00;;;0.00;;
12218;SDS011;6172;42.646;23.344;2023-05-10T00:15:43;0.00;;;0.00;;
12218;SDS011;6172;42.646;23.344;2023-05-10T00:18:10;0.00;;;0.00;;
12218;SDS011;6172;42.646;23.344;2023-05-10T00:20:37;0.00;;;0.00;;
12218;SDS011;6172;42.646;23.344;2023-05-10T00:23:04;0.00;;;0.00;;
12218;SDS011;6172;42.646;23.344;2023-05-10T00:25:30;0.00;;;0.00;;
12218;SDS011;6172;42.646;23.344;2023-05-10T00:27:57;0.00;;;0.00;;
12218;SDS011;6172;42.646;23.344;2023-05-10T00:30:27;0.00;;;0.00;;
12218;SDS011;6172;42.646;23.344;2023-05-10T00:32:54;0.00;;;0.00;;
12218;SDS011;6172;42.646;23.344;2023-05-10T00:35:21;0.00;;;0.00;;
12218;SDS011;6172;42.646;23.344;2023-05-10T00:37:48;0.00;;;0.00;;
12218;SDS011;6172;42.646;23.344;2023-05-10T00:40:15;0.00;;;0.00;;
12218;SDS011;6172;42.646;23.344;2023-05-10T00:42:42;0.00;;;0.00;;
12218;SDS011;6172;42.646;23.344;2023-05-10T00:45:09;0.00;;;0.00;;
12218;SDS011;6172;42.646;23.344;2023-05-10T00:47:37;0.00;;;0.00;;
12218;SDS011;6172;42.646;23.344;2023-05-10T00:50:06;0.00;;;0.00;;
12218;SDS011;6172;42.646;23.344;2023-05-10T00:52:34;0.30;;;0.30;;
12218;SDS011;6172;42.646;23.344;2023-05-10T00:55:01;0.00;;;0.00;;
12218;SDS011;6172;42.646;23.344;2023-05-10T00:57:28;0.00;;;0.00;;
12218;SDS011;6172;42.646;23.344;2023-05-10T00:59:55;0.00;;;0.00;;
12218;SDS011;6172;42.646;23.344;2023-05-10T01:02:23;0.00;;;0.00;;
12218;SDS011;6172;42.646;23.344;2023-05-10T01:04:51;0.00;;;0.00;;
12218;SDS011;6172;42.646;23.344;2023-05-10T01:07:20;0.00;;;0.00;;
12218;SDS011;6172;42.646;23.344;2023-05-10T01:09:47;0.00;;;0.00;;
12218;SDS011;6172;42.646;23.344;2023-05-10T01:12:14;0.00;;;0.00;;
12218;SDS011;6172;42.646;23.344;2023-05-10T01:14:41;0.00;;;0.00;;
12218;SDS011;6172;42.646;23.344;2023-05-10T01:17:08;0.00;;;0.00;;
12218;SDS011;6172;42.646;23.344;2023-05-10T01:19:55;0.00;;;0.00;;
12218;SDS011;6172;42.646;23.344;2023-05-10T01:22:39;0.00;;;0.00;;
12218;SDS011;6172;42.646;23.344;2023-05-10T01:25:32;0.00;;;0.00;;
12218;SDS011;6172;42.646;23.344;2023-05-10T01:28:28;0.00;;;0.00;;
12218;SDS011;6172;42.646;23.344;2023-05-10T01:31:18;0.00;;;0.00;;
12218;SDS011;6172;42.646;23.344;2023-05-10T01:33:57;0.00;;;0.00;;
12218;SDS011;6172;42.646;23.344;2023-05-10T01:36:30;0.00;;;0.00;;
12218;SDS011;6172;42.646;23.344;2023-05-10T01:39:00;0.00;;;0.00;;
12218;SDS011;6172;42.646;23.344;2023-05-10T01:41:36;0.00;;;0.00;;
12218;SDS011;6172;42.646;23.344;2023-05-10T01:44:11;0.00;;;0.00;;
12218;SDS011;6172;42.646;23.344;2023-05-10T01:46:44;0.00;;;0.00;;
12218;SDS011;6172;42.646;23.344;2023-05-10T01:49:19;0.00;;;0.00;;
12218;SDS011;6172;42.646;23.344;2023-05-10T01:51:50;0.30;;;0.30;;
12218;SDS011;6172;42.646;23.344;2023-05-10T01:54:21;0.00;;;0.00;;
12218;SDS011;6172;42.646;23.344;2023-05-10T01:56:52;0.00;;;0.00;;
12218;SDS011;6172;42.646;23.344;2023-05-10T01:59:26;0.20;;;0.20;;
12218;SDS011;6172;42.646;23.344;2023-05-10T02:01:57;0.00;;;0.00;;
12218;SDS011;6172;42.646;23.344;2023-05-10T02:04:27;0.00;;;0.00;;
12218;SDS011;6172;42.646;23.344;2023-05-10T02:06:55;0.00;;;0.00;;
12218;SDS011;6172;42.646;23.344;2023-05-10T02:09:23;0.00;;;0.00;;
12218;SDS011;6172;42.646;23.344;2023-05-10T02:11:51;0.00;;;0.00;;
12218;SDS011;6172;42.646;23.344;2023-05-10T02:14:20;0.00;;;0.00;;
12218;SDS011;6172;42.646;23.344;2023-05-10T02:16:49;0.00;;;0.00;;
12218;SDS011;6172;42.646;23.344;2023-05-10T02:19:19;0.00;;;0.00;;
12218;SDS011;6172;42.646;23.344;2023-05-10T02:21:48;0.00;;;0.00;;
12218;SDS011;6172;42.646;23.344;2023-05-10T02:24:17;0.00;;;0.00;;
12218;SDS011;6172;42.646;23.344;2023-05-10T02:26:45;0.00;;;0.00;;
12218;SDS011;6172;42.646;23.344;2023-05-10T02:29:14;0.00;;;0.00;;
12218;SDS011;6172;42.646;23.344;2023-05-10T02:31:43;0.00;;;0.00;;
12218;SDS011;6172;42.646;23.344;2023-05-10T02:34:11;0.00;;;0.00;;
12218;SDS011;6172;42.646;23.344;2023-05-10T02:36:38;7.40;;;7.10;;
12218;SDS011;6172;42.646;23.344;2023-05-10T02:39:08;0.00;;;0.00;;
12218;SDS011;6172;42.646;23.344;2023-05-10T02:41:37;0.00;;;0.00;;
12218;SDS011;6172;42.646;23.344;2023-05-10T02:44:06;0.00;;;0.00;;
12218;SDS011;6172;42.646;23.344;2023-05-10T02:46:35;0.00;;;0.00;;
12218;SDS011;6172;42.646;23.344;2023-05-10T02:49:02;0.00;;;0.00;;
12218;SDS011;6172;42.646;23.344;2023-05-10T02:51:30;0.20;;;0.20;;
12218;SDS011;6172;42.646;23.344;2023-05-10T02:54:01;0.00;;;0.00;;
12218;SDS011;6172;42.646;23.344;2023-05-10T02:56:36;0.00;;;0.00;;
12218;SDS011;6172;42.646;23.344;2023-05-10T02:59:09;0.00;;;0.00;;
12218;SDS011;6172;42.646;23.344;2023-05-10T03:01:36;0.00;;;0.00;;
12218;SDS011;6172;42.646;23.344;2023-05-10T03:04:04;0.00;;;0.00;;
12218;SDS011;6172;42.646;23.344;2023-05-10T03:06:31;0.00;;;0.00;;
12218;SDS011;6172;42.646;23.344;2023-05-10T03:08:58;0.00;;;0.00;;
12218;SDS011;6172;42.646;23.344;2023-05-10T03:11:31;0.00;;;0.00;;
12218;SDS011;6172;42.646;23.344;2023-05-10T03:14:11;0.00;;;0.00;;
12218;SDS011;6172;42.646;23.344;2023-05-10T03:16:50;0.00;;;0.00;;
12218;SDS011;6172;42.646;23.344;2023-05-10T03:19:24;0.00;;;0.00;;
12218;SDS011;6172;42.646;23.344;2023-05-10T03:21:56;0.00;;;0.00;;
12218;SDS011;6172;42.646;23.344;2023-05-10T03:24:26;0.00;;;0.00;;
12218;SDS011;6172;42.646;23.344;2023-05-10T03:26:56;0.00;;;0.00;;
12218;SDS011;6172;42.646;23.344;2023-05-10T03:29:28;0.00;;;0.00;;
12218;SDS011;6172;42.646;23.344;2023-05-10T03:31:57;0.00;;;0.00;;
12218;SDS011;6172;42.646;23.344;2023-05-10T03:34:24;0.00;;;0.00;;
12218;SDS011;6172;42.646;23.344;2023-05-10T03:36:51;0.00;;;0.00;;
12218;SDS011;6172;42.646;23.344;2023-05-10T03:39:18;0.00;;;0.00;;
12218;SDS011;6172;42.646;23.344;2023-05-10T03:41:46;0.00;;;0.00;;
12218;SDS011;6172;42.646;23.344;2023-05-10T03:44:14;0.00;;;0.00;;
12218;SDS011;6172;42.646;23.344;2023-05-10T03:46:41;0.00;;;0.00;;
12218;SDS011;6172;42.646;23.344;2023-05-10T03:49:08;0.00;;;0.00;;
12218;SDS011;6172;42.646;23.344;2023-05-10T03:51:35;0.00;;;0.00;;
12218;SDS011;6172;42.646;23.344;2023-05-10T03:54:01;0.00;;;0.00;;
12218;SDS011;6172;42.646;23.344;2023-05-10T03:56:28;0.00;;;0.00;;
12218;SDS011;6172;42.646;23.344;2023-05-10T03:58:55;0.00;;;0.00;;
12218;SDS011;6172;42.646;23.344;2023-05-10T04:01:23;0.00;;;0.00;;
12218;SDS011;6172;42.646;23.344;2023-05-10T04:03:50;0.00;;;0.00;;
12218;SDS011;6172;42.646;23.344;2023-05-10T04:06:17;0.00;;;0.00;;
12218;SDS011;6172;42.646;23.344;2023-05-10T04:08:44;0.00;;;0.00;;
12218;SDS011;6172;42.646;23.344;2023-05-10T04:11:11;0.00;;;0.00;;
12218;SDS011;6172;42.646;23.344;2023-05-10T04:13:39;0.00;;;0.00;;
12218;SDS011;6172;42.646;23.344;2023-05-10T04:16:06;0.00;;;0.00;;
12218;SDS011;6172;42.646;23.344;2023-05-10T04:18:34;0.00;;;0.00;;
12218;SDS011;6172;42.646;23.344;2023-05-10T04:21:01;0.00;;;0.00;;
12218;SDS011;6172;42.646;23.344;2023-05-10T04:23:28;0.00;;;0.00;;
12218;SDS011;6172;42.646;23.344;2023-05-10T04:25:59;0.00;;;0.00;;
12218;SDS011;6172;42.646;23.344;2023-05-10T04:28:26;0.00;;;0.00;;
12218;SDS011;6172;42.646;23.344;2023-05-10T04:31:00;0.00;;;0.00;;
12218;SDS011;6172;42.646;23.344;2023-05-10T04:33:27;0.00;;;0.00;;
12218;SDS011;6172;42.646;23.344;2023-05-10T04:35:55;0.00;;;0.00;;
12218;SDS011;6172;42.646;23.344;2023-05-10T04:38:22;0.00;;;0.00;;
12218;SDS011;6172;42.646;23.344;2023-05-10T04:40:49;0.00;;;0.00;;
12218;SDS011;6172;42.646;23.344;2023-05-10T04:43:15;0.00;;;0.00;;
12218;SDS011;6172;42.646;23.344;2023-05-10T04:45:42;0.00;;;0.00;;
12218;SDS011;6172;42.646;23.344;2023-05-10T04:48:09;0.00;;;0.00;;
12218;SDS011;6172;42.646;23.344;2023-05-10T04:50:36;0.00;;;0.00;;
12218;SDS011;6172;42.646;23.344;2023-05-10T04:53:04;0.00;;;0.00;;
12218;SDS011;6172;42.646;23.344;2023-05-10T04:55:31;0.00;;;0.00;;
12218;SDS011;6172;42.646;23.344;2023-05-10T04:57:58;0.00;;;0.00;;
12218;SDS011;6172;42.646;23.344;2023-05-10T05:00:25;0.00;;;0.00;;
12218;SDS011;6172;42.646;23.344;2023-05-10T05:02:52;0.00;;;0.00;;
12218;SDS011;6172;42.646;23.344;2023-05-10T05:05:19;0.00;;;0.00;;
12218;SDS011;6172;42.646;23.344;2023-05-10T05:07:46;0.00;;;0.00;;
12218;SDS011;6172;42.646;23.344;2023-05-10T05:10:15;0.00;;;0.00;;
12218;SDS011;6172;42.646;23.344;2023-05-10T05:12:41;0.00;;;0.00;;
12218;SDS011;6172;42.646;23.344;2023-05-10T05:15:08;0.00;;;0.00;;
12218;SDS011;6172;42.646;23.344;2023-05-10T05:17:36;0.00;;;0.00;;
12218;SDS011;6172;42.646;23.344;2023-05-10T05:20:03;6.80;;;5.50;;
12218;SDS011;6172;42.646;23.344;2023-05-10T05:22:30;8.73;;;6.53;;
12218;SDS011;6172;42.646;23.344;2023-05-10T05:24:57;9.37;;;6.87;;
12218;SDS011;6172;42.646;23.344;2023-05-10T05:27:25;6.63;;;5.93;;
12218;SDS011;6172;42.646;23.344;2023-05-10T05:29:53;7.63;;;5.50;;
12218;SDS011;6172;42.646;23.344;2023-05-10T05:32:19;8.43;;;6.23;;
12218;SDS011;6172;42.646;23.344;2023-05-10T05:34:46;7.47;;;6.10;;
12218;SDS011;6172;42.646;23.344;2023-05-10T05:37:13;6.43;;;5.37;;
12218;SDS011;6172;42.646;23.344;2023-05-10T05:39:40;13.03;;;6.10;;
12218;SDS011;6172;42.646;23.344;2023-05-10T05:42:07;6.80;;;4.60;;
12218;SDS011;6172;42.646;23.344;2023-05-10T05:44:36;6.93;;;5.53;;
12218;SDS011;6172;42.646;23.344;2023-05-10T05:47:03;7.60;;;6.17;;
12218;SDS011;6172;42.646;23.344;2023-05-10T05:49:30;10.37;;;5.83;;
12218;SDS011;6172;42.646;23.344;2023-05-10T05:51:58;8.37;;;5.77;;
12218;SDS011;6172;42.646;23.344;2023-05-10T05:54:25;8.30;;;6.60;;
12218;SDS011;6172;42.646;23.344;2023-05-10T05:56:53;9.03;;;6.20;;
12218;SDS011;6172;42.646;23.344;2023-05-10T05:59:20;8.60;;;6.60;;
12218;SDS011;6172;42.646;23.344;2023-05-10T06:01:48;11.17;;;7.67;;
12218;SDS011;6172;42.646;23.344;2023-05-10T06:04:15;12.97;;;8.77;;
12218;SDS011;6172;42.646;23.344;2023-05-10T06:06:43;8.90;;;6.87;;
12218;SDS011;6172;42.646;23.344;2023-05-10T06:09:10;11.73;;;8.10;;
12218;SDS011;6172;42.646;23.344;2023-05-10T06:11:37;10.60;;;7.23;;
12218;SDS011;6172;42.646;23.344;2023-05-10T06:14:04;10.30;;;6.73;;
12218;SDS011;6172;42.646;23.344;2023-05-10T06:16:32;9.43;;;7.47;;
12218;SDS011;6172;42.646;23.344;2023-05-10T06:19:01;9.17;;;6.73;;
12218;SDS011;6172;42.646;23.344;2023-05-10T06:21:28;10.40;;;7.27;;
12218;SDS011;6172;42.646;23.344;2023-05-10T06:23:55;11.10;;;7.70;;
12218;SDS011;6172;42.646;23.344;2023-05-10T06:26:22;10.80;;;7.23;;
12218;SDS011;6172;42.646;23.344;2023-05-10T06:28:49;8.53;;;6.43;;
12218;SDS011;6172;42.646;23.344;2023-05-10T06:31:15;12.03;;;6.37;;
12218;SDS011;6172;42.646;23.344;2023-05-10T06:33:42;11.63;;;7.87;;
12218;SDS011;6172;42.646;23.344;2023-05-10T06:36:11;11.93;;;7.60;;
12218;SDS011;6172;42.646;23.344;2023-05-10T06:38:38;9.13;;;7.40;;
12218;SDS011;6172;42.646;23.344;2023-05-10T06:41:05;9.30;;;6.10;;
12218;SDS011;6172;42.646;23.344;2023-05-10T06:43:32;10.57;;;7.13;;
12218;SDS011;6172;42.646;23.344;2023-05-10T06:45:58;10.70;;;6.93;;
12218;SDS011;6172;42.646;23.344;2023-05-10T06:48:25;9.03;;;7.00;;
12218;SDS011;6172;42.646;23.344;2023-05-10T06:50:52;10.53;;;7.97;;
12218;SDS011;6172;42.646;23.344;2023-05-10T06:53:21;11.07;;;7.77;;
12218;SDS011;6172;42.646;23.344;2023-05-10T06:55:48;8.73;;;7.30;;
12218;SDS011;6172;42.646;23.344;2023-05-10T06:58:15;10.00;;;7.00;;
12218;SDS011;6172;42.646;23.344;2023-05-10T07:00:42;10.30;;;7.77;;
12218;SDS011;6172;42.646;23.344;2023-05-10T07:03:10;10.13;;;7.47;;
12218;SDS011;6172;42.646;23.344;2023-05-10T07:05:37;8.20;;;6.07;;
12218;SDS011;6172;42.646;23.344;2023-05-10T07:08:04;8.13;;;5.53;;
12218;SDS011;6172;42.646;23.344;2023-05-10T07:10:32;8.73;;;6.00;;
12218;SDS011;6172;42.646;23.344;2023-05-10T07:12:59;8.97;;;5.63;;
12218;SDS011;6172;42.646;23.344;2023-05-10T07:15:26;7.37;;;5.97;;
12218;SDS011;6172;42.646;23.344;2023-05-10T07:17:53;8.43;;;5.70;;
12218;SDS011;6172;42.646;23.344;2023-05-10T07:20:20;9.17;;;5.53;;
12218;SDS011;6172;42.646;23.344;2023-05-10T07:22:47;8.37;;;6.30;;
12218;SDS011;6172;42.646;23.344;2023-05-10T07:25:14;9.43;;;6.80;;
12218;SDS011;6172;42.646;23.344;2023-05-10T07:27:42;7.10;;;6.37;;
12218;SDS011;6172;42.646;23.344;2023-05-10T07:30:09;9.63;;;6.17;;
12218;SDS011;6172;42.646;23.344;2023-05-10T07:32:36;7.17;;;6.13;;
12218;SDS011;6172;42.646;23.344;2023-05-10T07:35:04;8.60;;;6.70;;
12218;SDS011;6172;42.646;23.344;2023-05-10T07:37:31;7.90;;;6.30;;
12218;SDS011;6172;42.646;23.344;2023-05-10T07:39:58;10.73;;;7.63;;
12218;SDS011;6172;42.646;23.344;2023-05-10T07:42:25;11.10;;;6.53;;
12218;SDS011;6172;42.646;23.344;2023-05-10T07:44:53;9.07;;;7.20;;
12218;SDS011;6172;42.646;23.344;2023-05-10T07:47:20;11.67;;;7.60;;
12218;SDS011;6172;42.646;23.344;2023-05-10T07:49:47;8.73;;;7.10;;
12218;SDS011;6172;42.646;23.344;2023-05-10T07:52:14;9.80;;;6.97;;
12218;SDS011;6172;42.646;23.344;2023-05-10T07:54:40;9.50;;;6.73;;
12218;SDS011;6172;42.646;23.344;2023-05-10T07:57:07;10.83;;;6.80;;
12218;SDS011;6172;42.646;23.344;2023-05-10T07:59:34;8.27;;;6.83;;
12218;SDS011;6172;42.646;23.344;2023-05-10T08:02:02;9.70;;;6.57;;
12218;SDS011;6172;42.646;23.344;2023-05-10T08:04:29;10.47;;;7.23;;
12218;SDS011;6172;42.646;23.344;2023-05-10T08:06:56;7.80;;;6.77;;
12218;SDS011;6172;42.646;23.344;2023-05-10T08:09:23;10.57;;;6.63;;
12218;SDS011;6172;42.646;23.344;2023-05-10T08:11:50;7.83;;;5.43;;
12218;SDS011;6172;42.646;23.344;2023-05-10T08:14:19;9.63;;;6.43;;
12218;SDS011;6172;42.646;23.344;2023-05-10T08:16:46;12.80;;;7.77;;
12218;SDS011;6172;42.646;23.344;2023-05-10T08:19:14;13.13;;;7.30;;
12218;SDS011;6172;42.646;23.344;2023-05-10T08:21:44;10.93;;;7.50;;
12218;SDS011;6172;42.646;23.344;2023-05-10T08:24:11;9.33;;;6.60;;
12218;SDS011;6172;42.646;23.344;2023-05-10T08:26:37;6.57;;;5.77;;
12218;SDS011;6172;42.646;23.344;2023-05-10T08:29:04;8.83;;;6.40;;
12218;SDS011;6172;42.646;23.344;2023-05-10T08:31:31;10.73;;;6.87;;
12218;SDS011;6172;42.646;23.344;2023-05-10T08:33:58;8.70;;;6.87;;
12218;SDS011;6172;42.646;23.344;2023-05-10T08:36:26;11.47;;;6.77;;
12218;SDS011;6172;42.646;23.344;2023-05-10T08:38:53;10.40;;;7.00;;
12218;SDS011;6172;42.646;23.344;2023-05-10T08:41:20;10.30;;;6.90;;
12218;SDS011;6172;42.646;23.344;2023-05-10T08:43:49;7.97;;;6.17;;
12218;SDS011;6172;42.646;23.344;2023-05-10T08:46:17;9.50;;;6.60;;
12218;SDS011;6172;42.646;23.344;2023-05-10T08:48:44;7.27;;;6.27;;
12218;SDS011;6172;42.646;23.344;2023-05-10T08:51:13;6.50;;;5.77;;
12218;SDS011;6172;42.646;23.344;2023-05-10T08:53:43;6.10;;;5.50;;
12218;SDS011;6172;42.646;23.344;2023-05-10T08:56:10;8.30;;;6.70;;
12218;SDS011;6172;42.646;23.344;2023-05-10T08:58:37;10.53;;;6.43;;
12218;SDS011;6172;42.646;23.344;2023-05-10T09:01:04;9.80;;;7.30;;
12218;SDS011;6172;42.646;23.344;2023-05-10T09:03:31;8.70;;;7.67;;
12218;SDS011;6172;42.646;23.344;2023-05-10T09:05:58;6.57;;;5.67;;
12218;SDS011;6172;42.646;23.344;2023-05-10T09:08:25;6.97;;;5.30;;
12218;SDS011;6172;42.646;23.344;2023-05-10T09:10:54;10.77;;;6.50;;
12218;SDS011;6172;42.646;23.344;2023-05-10T09:13:22;7.23;;;5.93;;
12218;SDS011;6172;42.646;23.344;2023-05-10T09:15:49;9.23;;;7.00;;
12218;SDS011;6172;42.646;23.344;2023-05-10T09:18:17;10.37;;;7.90;;
12218;SDS011;6172;42.646;23.344;2023-05-10T09:20:44;11.70;;;8.13;;
12218;SDS011;6172;42.646;23.344;2023-05-10T09:23:11;13.00;;;10.10;;
12218;SDS011;6172;42.646;23.344;2023-05-10T09:25:38;8.30;;;7.50;;
12218;SDS011;6172;42.646;23.344;2023-05-10T09:28:07;11.43;;;6.37;;
12218;SDS011;6172;42.646;23.344;2023-05-10T09:30:34;11.73;;;7.80;;
12218;SDS011;6172;42.646;23.344;2023-05-10T09:33:01;10.73;;;7.67;;
12218;SDS011;6172;42.646;23.344;2023-05-10T09:35:29;8.53;;;7.33;;
12218;SDS011;6172;42.646;23.344;2023-05-10T09:37:57;8.80;;;7.87;;
12218;SDS011;6172;42.646;23.344;2023-05-10T09:40:26;10.27;;;7.03;;
12218;SDS011;6172;42.646;23.344;2023-05-10T09:42:55;9.53;;;6.70;;
12218;SDS011;6172;42.646;23.344;2023-05-10T09:45:24;7.47;;;6.50;;
12218;SDS011;6172;42.646;23.344;2023-05-10T09:47:53;8.50;;;6.63;;
12218;SDS011;6172;42.646;23.344;2023-05-10T09:50:20;7.87;;;6.63;;
12218;SDS011;6172;42.646;23.344;2023-05-10T09:52:48;9.30;;;6.97;;
12218;SDS011;6172;42.646;23.344;2023-05-10T09:55:17;7.80;;;6.47;;
12218;SDS011;6172;42.646;23.344;2023-05-10T09:57:46;7.70;;;6.90;;
12218;SDS011;6172;42.646;23.344;2023-05-10T10:00:17;8.63;;;6.80;;
12218;SDS011;6172;42.646;23.344;2023-05-10T10:02:46;9.20;;;6.67;;
12218;SDS011;6172;42.646;23.344;2023-05-10T10:05:14;8.17;;;6.80;;
12218;SDS011;6172;42.646;23.344;2023-05-10T10:07:41;8.80;;;6.53;;
12218;SDS011;6172;42.646;23.344;2023-05-10T10:10:09;8.63;;;6.37;;
12218;SDS011;6172;42.646;23.344;2023-05-10T10:12:38;9.70;;;6.70;;
12218;SDS011;6172;42.646;23.344;2023-05-10T10:15:07;6.67;;;5.67;;
12218;SDS011;6172;42.646;23.344;2023-05-10T10:17:35;8.50;;;6.70;;
12218;SDS011;6172;42.646;23.344;2023-05-10T10:20:06;7.10;;;6.23;;
12218;SDS011;6172;42.646;23.344;2023-05-10T10:22:33;12.63;;;8.17;;
12218;SDS011;6172;42.646;23.344;2023-05-10T10:25:00;6.93;;;5.93;;
12218;SDS011;6172;42.646;23.344;2023-05-10T10:27:29;9.40;;;6.27;;
12218;SDS011;6172;42.646;23.344;2023-05-10T10:30:06;8.20;;;6.00;;
12218;SDS011;6172;42.646;23.344;2023-05-10T10:32:47;6.67;;;5.97;;
12218;SDS011;6172;42.646;23.344;2023-05-10T10:35:37;6.57;;;5.07;;
12218;SDS011;6172;42.646;23.344;2023-05-10T10:38:05;8.70;;;6.17;;
12218;SDS011;6172;42.646;23.344;2023-05-10T10:40:34;5.63;;;5.13;;
12218;SDS011;6172;42.646;23.344;2023-05-10T10:46:09;8.87;;;5.30;;
12218;SDS011;6172;42.646;23.344;2023-05-10T10:48:37;7.33;;;5.73;;
12218;SDS011;6172;42.646;23.344;2023-05-10T10:51:06;8.13;;;5.30;;
12218;SDS011;6172;42.646;23.344;2023-05-10T10:53:32;7.10;;;5.30;;
12218;SDS011;6172;42.646;23.344;2023-05-10T10:56:04;7.70;;;5.70;;
12218;SDS011;6172;42.646;23.344;2023-05-10T10:58:34;6.07;;;5.13;;
12218;SDS011;6172;42.646;23.344;2023-05-10T11:01:12;7.50;;;5.00;;
12218;SDS011;6172;42.646;23.344;2023-05-10T11:03:40;8.37;;;4.73;;
12218;SDS011;6172;42.646;23.344;2023-05-10T11:06:09;7.13;;;4.97;;
12218;SDS011;6172;42.646;23.344;2023-05-10T11:08:41;8.20;;;5.63;;
12218;SDS011;6172;42.646;23.344;2023-05-10T11:11:10;6.30;;;5.20;;
12218;SDS011;6172;42.646;23.344;2023-05-10T11:13:41;6.03;;;5.43;;
12218;SDS011;6172;42.646;23.344;2023-05-10T11:16:10;8.83;;;6.07;;
12218;SDS011;6172;42.646;23.344;2023-05-10T11:18:38;7.63;;;5.03;;
12218;SDS011;6172;42.646;23.344;2023-05-10T11:21:07;8.77;;;5.03;;
12218;SDS011;6172;42.646;23.344;2023-05-10T11:23:49;6.03;;;4.63;;
12218;SDS011;6172;42.646;23.344;2023-05-10T11:26:18;9.07;;;4.63;;
12218;SDS011;6172;42.646;23.344;2023-05-10T11:28:48;6.80;;;5.67;;
12218;SDS011;6172;42.646;23.344;2023-05-10T11:31:15;6.60;;;5.90;;
12218;SDS011;6172;42.646;23.344;2023-05-10T11:33:43;9.33;;;5.33;;
12218;SDS011;6172;42.646;23.344;2023-05-10T11:36:13;5.17;;;4.67;;
12218;SDS011;6172;42.646;23.344;2023-05-10T11:38:41;7.17;;;4.83;;
12218;SDS011;6172;42.646;23.344;2023-05-10T11:41:08;8.03;;;4.80;;
12218;SDS011;6172;42.646;23.344;2023-05-10T11:43:36;10.47;;;4.60;;
12218;SDS011;6172;42.646;23.344;2023-05-10T11:46:05;11.20;;;4.47;;
12218;SDS011;6172;42.646;23.344;2023-05-10T11:48:32;9.30;;;5.53;;
12218;SDS011;6172;42.646;23.344;2023-05-10T11:51:00;12.13;;;5.17;;
12218;SDS011;6172;42.646;23.344;2023-05-10T11:53:28;9.03;;;5.43;;
12218;SDS011;6172;42.646;23.344;2023-05-10T11:56:02;6.50;;;4.50;;
12218;SDS011;6172;42.646;23.344;2023-05-10T11:58:30;8.53;;;6.03;;
12218;SDS011;6172;42.646;23.344;2023-05-10T12:00:57;7.57;;;5.87;;
12218;SDS011;6172;42.646;23.344;2023-05-10T12:03:24;6.70;;;5.60;;
12218;SDS011;6172;42.646;23.344;2023-05-10T12:05:51;7.67;;;5.47;;
12218;SDS011;6172;42.646;23.344;2023-05-10T12:08:20;6.07;;;5.43;;
12218;SDS011;6172;42.646;23.344;2023-05-10T12:10:49;10.63;;;7.23;;
12218;SDS011;6172;42.646;23.344;2023-05-10T12:13:16;6.37;;;5.67;;
12218;SDS011;6172;42.646;23.344;2023-05-10T12:15:44;6.80;;;5.67;;
12218;SDS011;6172;42.646;23.344;2023-05-10T12:18:11;8.07;;;5.20;;
12218;SDS011;6172;42.646;23.344;2023-05-10T12:20:38;8.60;;;5.40;;
12218;SDS011;6172;42.646;23.344;2023-05-10T12:23:07;7.67;;;6.30;;
12218;SDS011;6172;42.646;23.344;2023-05-10T12:25:35;9.93;;;6.53;;
12218;SDS011;6172;42.646;23.344;2023-05-10T12:28:05;7.23;;;5.57;;
12218;SDS011;6172;42.646;23.344;2023-05-10T12:30:34;7.83;;;5.87;;
12218;SDS011;6172;42.646;23.344;2023-05-10T12:33:03;8.67;;;7.23;;
12218;SDS011;6172;42.646;23.344;2023-05-10T12:35:42;11.40;;;6.90;;
12218;SDS011;6172;42.646;23.344;2023-05-10T12:38:24;6.97;;;6.23;;
12218;SDS011;6172;42.646;23.344;2023-05-10T12:40:56;9.17;;;6.57;;
12218;SDS011;6172;42.646;23.344;2023-05-10T12:43:24;8.57;;;6.80;;
12218;SDS011;6172;42.646;23.344;2023-05-10T12:45:51;8.07;;;6.10;;
12218;SDS011;6172;42.646;23.344;2023-05-10T12:48:18;6.73;;;5.80;;
12218;SDS011;6172;42.646;23.344;2023-05-10T12:50:45;10.87;;;6.50;;
12218;SDS011;6172;42.646;23.344;2023-05-10T12:53:13;14.13;;;7.50;;
12218;SDS011;6172;42.646;23.344;2023-05-10T12:55:40;10.27;;;6.73;;
12218;SDS011;6172;42.646;23.344;2023-05-10T12:58:07;9.83;;;6.53;;
12218;SDS011;6172;42.646;23.344;2023-05-10T13:00:35;10.93;;;7.00;;
12218;SDS011;6172;42.646;23.344;2023-05-10T13:03:03;8.83;;;6.77;;
12218;SDS011;6172;42.646;23.344;2023-05-10T13:05:30;7.97;;;6.10;;
12218;SDS011;6172;42.646;23.344;2023-05-10T13:07:57;9.00;;;5.43;;
12218;SDS011;6172;42.646;23.344;2023-05-10T13:10:24;7.57;;;6.10;;
12218;SDS011;6172;42.646;23.344;2023-05-10T13:12:51;8.73;;;6.67;;
12218;SDS011;6172;42.646;23.344;2023-05-10T13:15:17;11.40;;;7.30;;
12218;SDS011;6172;42.646;23.344;2023-05-10T13:17:46;8.57;;;6.27;;
12218;SDS011;6172;42.646;23.344;2023-05-10T13:20:12;9.57;;;6.40;;
12218;SDS011;6172;42.646;23.344;2023-05-10T13:22:39;6.70;;;6.00;;
12218;SDS011;6172;42.646;23.344;2023-05-10T13:25:07;8.40;;;6.60;;
12218;SDS011;6172;42.646;23.344;2023-05-10T13:27:35;9.37;;;6.77;;
12218;SDS011;6172;42.646;23.344;2023-05-10T13:30:02;7.90;;;6.30;;
12218;SDS011;6172;42.646;23.344;2023-05-10T13:32:29;11.00;;;6.73;;
12218;SDS011;6172;42.646;23.344;2023-05-10T13:34:57;7.73;;;6.73;;
12218;SDS011;6172;42.646;23.344;2023-05-10T13:37:24;8.77;;;6.37;;
12218;SDS011;6172;42.646;23.344;2023-05-10T13:39:51;9.03;;;5.80;;
12218;SDS011;6172;42.646;23.344;2023-05-10T13:42:18;11.83;;;6.47;;
12218;SDS011;6172;42.646;23.344;2023-05-10T13:44:45;7.97;;;5.97;;
12218;SDS011;6172;42.646;23.344;2023-05-10T13:47:12;9.27;;;5.87;;
12218;SDS011;6172;42.646;23.344;2023-05-10T13:49:39;9.47;;;6.40;;
12218;SDS011;6172;42.646;23.344;2023-05-10T13:52:07;12.63;;;7.33;;
12218;SDS011;6172;42.646;23.344;2023-05-10T13:54:35;11.27;;;6.13;;
12218;SDS011;6172;42.646;23.344;2023-05-10T13:57:04;8.27;;;5.93;;
12218;SDS011;6172;42.646;23.344;2023-05-10T13:59:31;11.13;;;6.17;;
12218;SDS011;6172;42.646;23.344;2023-05-10T14:01:59;11.17;;;6.63;;
12218;SDS011;6172;42.646;23.344;2023-05-10T14:04:27;8.60;;;6.40;;
12218;SDS011;6172;42.646;23.344;2023-05-10T14:06:54;7.70;;;5.67;;
12218;SDS011;6172;42.646;23.344;2023-05-10T14:09:22;11.17;;;6.27;;
12218;SDS011;6172;42.646;23.344;2023-05-10T14:11:49;9.27;;;6.20;;
12218;SDS011;6172;42.646;23.344;2023-05-10T14:14:16;8.13;;;5.63;;
12218;SDS011;6172;42.646;23.344;2023-05-10T14:16:44;15.73;;;8.90;;
12218;SDS011;6172;42.646;23.344;2023-05-10T14:19:11;7.70;;;6.00;;
12218;SDS011;6172;42.646;23.344;2023-05-10T14:21:38;11.27;;;8.13;;
12218;SDS011;6172;42.646;23.344;2023-05-10T14:24:05;11.00;;;7.93;;
12218;SDS011;6172;42.646;23.344;2023-05-10T14:26:34;11.53;;;6.50;;
12218;SDS011;6172;42.646;23.344;2023-05-10T14:29:01;8.57;;;5.97;;
12218;SDS011;6172;42.646;23.344;2023-05-10T14:31:28;11.93;;;7.07;;
12218;SDS011;6172;42.646;23.344;2023-05-10T14:33:55;8.60;;;6.10;;
12218;SDS011;6172;42.646;23.344;2023-05-10T14:36:22;8.03;;;5.83;;
12218;SDS011;6172;42.646;23.344;2023-05-10T14:38:49;7.93;;;6.30;;
12218;SDS011;6172;42.646;23.344;2023-05-10T14:41:17;7.10;;;6.10;;
12218;SDS011;6172;42.646;23.344;2023-05-10T14:43:45;8.13;;;6.50;;
12218;SDS011;6172;42.646;23.344;2023-05-10T14:46:12;10.23;;;5.53;;
12218;SDS011;6172;42.646;23.344;2023-05-10T14:48:39;8.77;;;5.40;;
12218;SDS011;6172;42.646;23.344;2023-05-10T14:51:06;6.40;;;5.23;;
12218;SDS011;6172;42.646;23.344;2023-05-10T14:53:33;7.73;;;5.87;;
12218;SDS011;6172;42.646;23.344;2023-05-10T14:56:00;9.43;;;6.03;;